METAR AND TAF INFORMATION
METAR FOR LTAP
ADDS - METARS form results

(2109 UTC 17 August 2018)
Data provider http://aviationweather.gov/adds/metars/
 
METAR text: LTAP 172050Z 35004KT 300V020 CAVOK 22/11 Q1010 NOSIG RMK RWY23 36004KT 250V060
Conditions at: LTAP (MERZIFON (TUR-AF, TR) observed 2050 UTC 17 August 2018
Temperature: 22.0°C (72°F)
Dewpoint: 11.0°C (52°F) [RH = 50%]
Pressure (altimeter): 29.82 inches Hg (1010.0 mb)
Winds: from the N (350 degrees) at 5 MPH (4 knots; 2.1 m/s)
Visibility: 6 or more miles (10+ km)
Ceiling: ceiling and visibility are OK
Clouds: unknown
Weather: no significant weather observed at this time

METAR text: LTAP 172020Z 02005KT CAVOK 22/11 Q1010 NOSIG RMK RWY23 02011KT
Conditions at: LTAP (MERZIFON (TUR-AF, TR) observed 2020 UTC 17 August 2018
Temperature: 22.0°C (72°F)
Dewpoint: 11.0°C (52°F) [RH = 50%]
Pressure (altimeter): 29.82 inches Hg (1010.0 mb)
Winds: from the NNE (20 degrees) at 6 MPH (5 knots; 2.6 m/s)
Visibility: 6 or more miles (10+ km)
Ceiling: ceiling and visibility are OK
Clouds: unknown
Weather: no significant weather observed at this time

Forecast for: LTAP (MERZIFON (TUR-AF, TR)
Text: TAF LTAP 171640Z 1718/1818 02008KT CAVOK
Forecast period: 1800 UTC 17 August 2018 to 1000 UTC 18 August 2018
Forecast type: FROM: standard forecast or significant change
Winds: from the NNE (20 degrees) at 9 MPH (8 knots; 4.2 m/s)
Visibility: 6 or more miles (10+ km)
Clouds: not forecast
Weather: NSW  (no significant weather)
Text: BECMG 1810/1813 02018KT FEW040
Forecast period: 1000 to 1800 UTC 18 August 2018
Forecast type: BECOMING: Conditions expected to become as follows by 1300 UTC 18 August 2018
Winds: from the NNE (20 degrees) at 21 MPH (18 knots; 9.4 m/s)
Visibility: 6 or more miles (10+ km)
Clouds: few clouds at 4000 feet AGL
Weather: NSW  (no significant weather)

 AIRPORT MAP

 RUNWAY INFORMATION
Runway 05 Runway length 9600 ft Runway width 148 ft
Runway elevation 1758 ft Runway displaced threshold 0 ft Runway heading 55
Runway 23 Runway length 9600 ft Runway width 148 ft
Runway elevation 1741 ft Runway displaced threshold 0 ft Runway heading 235

 AIRPORT FREQUENCIES
Type APP Name APP Frequency 122.1 MHZ
Type ATIS Name ATIS Frequency 122.425 MHZ
Type GND Name GND Frequency 121.95 MHZ
Type TWR Name TWR Frequency 122.1 MHZ

 AIRPORT NEAR NAVIGATION AIDS
Type TACAN Name Merzifon Frequency 109300 KHZ



Copyright © 2011 - 2018 BirgenAir Virtual Airlines. All rights reserved. Developed by Goktug Unver